sensor_id;sensor_type;location;lat;lon;timestamp;pressure;altitude;pressure_sealevel;temperature;humidity
72921;BME280;61064;51.654;5.476;2023-11-18T00:01:00;102410.53;;;5.32;100.00
72921;BME280;61064;51.654;5.476;2023-11-18T00:03:28;102433.03;;;5.41;100.00
72921;BME280;61064;51.654;5.476;2023-11-18T00:05:53;102424.28;;;5.42;100.00
72921;BME280;61064;51.654;5.476;2023-11-18T00:08:19;102433.22;;;5.44;100.00
72921;BME280;61064;51.654;5.476;2023-11-18T00:10:45;102438.56;;;5.46;100.00
72921;BME280;61064;51.654;5.476;2023-11-18T00:13:10;102435.94;;;5.46;100.00
72921;BME280;61064;51.654;5.476;2023-11-18T00:15:35;102424.28;;;5.42;100.00
72921;BME280;61064;51.654;5.476;2023-11-18T00:18:01;102427.84;;;5.43;100.00
72921;BME280;61064;51.654;5.476;2023-11-18T00:20:26;102419.59;;;5.37;100.00
72921;BME280;61064;51.654;5.476;2023-11-18T00:22:51;102432.06;;;5.39;100.00
72921;BME280;61064;51.654;5.476;2023-11-18T00:25:18;102413.59;;;5.39;100.00
72921;BME280;61064;51.654;5.476;2023-11-18T00:27:44;102410.63;;;5.33;100.00
72921;BME280;61064;51.654;5.476;2023-11-18T00:30:10;102427.53;;;5.37;100.00
72921;BME280;61064;51.654;5.476;2023-11-18T00:32:44;102407.66;;;5.27;100.00
72921;BME280;61064;51.654;5.476;2023-11-18T00:35:10;102420.38;;;5.34;100.00
72921;BME280;61064;51.654;5.476;2023-11-18T00:37:35;102421.09;;;5.32;100.00
72921;BME280;61064;51.654;5.476;2023-11-18T00:40:00;102419.28;;;5.31;100.00
72921;BME280;61064;51.654;5.476;2023-11-18T00:42:26;102420.09;;;5.30;100.00
72921;BME280;61064;51.654;5.476;2023-11-18T00:44:51;102416.31;;;5.25;100.00
72921;BME280;61064;51.654;5.476;2023-11-18T00:47:16;102417.31;;;5.27;100.00
72921;BME280;61064;51.654;5.476;2023-11-18T00:49:42;102402.78;;;5.19;100.00
72921;BME280;61064;51.654;5.476;2023-11-18T00:52:07;102421.53;;;5.23;100.00
72921;BME280;61064;51.654;5.476;2023-11-18T00:54:34;102421.53;;;5.23;100.00
72921;BME280;61064;51.654;5.476;2023-11-18T00:57:00;102409.56;;;5.14;100.00
72921;BME280;61064;51.654;5.476;2023-11-18T00:59:25;102422.44;;;5.24;100.00
72921;BME280;61064;51.654;5.476;2023-11-18T01:01:52;102425.66;;;5.18;100.00
72921;BME280;61064;51.654;5.476;2023-11-18T01:04:17;102428.53;;;5.23;100.00
72921;BME280;61064;51.654;5.476;2023-11-18T01:06:43;102423.97;;;5.20;100.00
72921;BME280;61064;51.654;5.476;2023-11-18T01:09:08;102437.09;;;5.19;100.00
72921;BME280;61064;51.654;5.476;2023-11-18T01:11:35;102436.94;;;5.16;100.00
72921;BME280;61064;51.654;5.476;2023-11-18T01:14:00;102444.84;;;5.16;100.00
72921;BME280;61064;51.654;5.476;2023-11-18T01:16:27;102435.94;;;5.14;100.00
72921;BME280;61064;51.654;5.476;2023-11-18T01:18:53;102434.31;;;5.16;100.00
72921;BME280;61064;51.654;5.476;2023-11-18T01:21:19;102443.84;;;5.14;100.00
72921;BME280;61064;51.654;5.476;2023-11-18T01:23:45;102438.75;;;5.17;100.00
72921;BME280;61064;51.654;5.476;2023-11-18T01:26:11;102444.94;;;5.17;100.00
72921;BME280;61064;51.654;5.476;2023-11-18T01:28:38;102435.31;;;5.18;100.00
72921;BME280;61064;51.654;5.476;2023-11-18T01:31:07;102436.03;;;5.15;100.00
72921;BME280;61064;51.654;5.476;2023-11-18T01:33:37;102431.56;;;5.14;100.00
72921;BME280;61064;51.654;5.476;2023-11-18T01:36:05;102436.28;;;5.20;100.00
72921;BME280;61064;51.654;5.476;2023-11-18T01:38:31;102426.38;;;5.16;100.00
72921;BME280;61064;51.654;5.476;2023-11-18T01:40:56;102422.03;;;5.16;100.00
72921;BME280;61064;51.654;5.476;2023-11-18T01:43:22;102428.31;;;5.18;100.00
72921;BME280;61064;51.654;5.476;2023-11-18T01:45:47;102437.28;;;5.22;100.00
72921;BME280;61064;51.654;5.476;2023-11-18T01:48:13;102427.78;;;5.25;100.00
72921;BME280;61064;51.654;5.476;2023-11-18T01:50:41;102421.25;;;5.19;100.00
72921;BME280;61064;51.654;5.476;2023-11-18T01:53:07;102424.31;;;5.26;100.00
72921;BME280;61064;51.654;5.476;2023-11-18T01:55:33;102429.59;;;5.26;100.00
72921;BME280;61064;51.654;5.476;2023-11-18T01:58:00;102428.91;;;5.30;100.00
72921;BME280;61064;51.654;5.476;2023-11-18T02:00:37;102436.03;;;5.31;100.00
72921;BME280;61064;51.654;5.476;2023-11-18T02:03:04;102435.94;;;5.30;100.00
72921;BME280;61064;51.654;5.476;2023-11-18T02:05:30;102427.13;;;5.29;100.00
72921;BME280;61064;51.654;5.476;2023-11-18T02:07:58;102433.47;;;5.33;100.00
72921;BME280;61064;51.654;5.476;2023-11-18T02:10:25;102433.63;;;5.36;100.00
72921;BME280;61064;51.654;5.476;2023-11-18T02:13:04;102423.06;;;5.36;100.00
72921;BME280;61064;51.654;5.476;2023-11-18T02:15:36;102427.59;;;5.38;100.00
72921;BME280;61064;51.654;5.476;2023-11-18T02:18:06;102436.44;;;5.39;100.00
72921;BME280;61064;51.654;5.476;2023-11-18T02:20:35;102418.53;;;5.33;100.00
72921;BME280;61064;51.654;5.476;2023-11-18T02:23:01;102430.38;;;5.41;100.00
72921;BME280;61064;51.654;5.476;2023-11-18T02:25:28;102433.13;;;5.43;100.00
72921;BME280;61064;51.654;5.476;2023-11-18T02:27:55;102439.31;;;5.43;100.00
72921;BME280;61064;51.654;5.476;2023-11-18T02:30:20;102437.25;;;5.38;100.00
72921;BME280;61064;51.654;5.476;2023-11-18T02:32:55;102449.13;;;5.46;100.00
72921;BME280;61064;51.654;5.476;2023-11-18T02:35:27;102448.22;;;5.46;100.00
72921;BME280;61064;51.654;5.476;2023-11-18T02:37:54;102442.09;;;5.47;100.00
72921;BME280;61064;51.654;5.476;2023-11-18T02:40:41;102432.63;;;5.50;100.00
72921;BME280;61064;51.654;5.476;2023-11-18T02:43:09;102436.16;;;5.51;100.00
72921;BME280;61064;51.654;5.476;2023-11-18T02:45:36;102436.22;;;5.52;100.00
72921;BME280;61064;51.654;5.476;2023-11-18T02:48:02;102425.53;;;5.49;100.00
72921;BME280;61064;51.654;5.476;2023-11-18T02:50:28;102431.84;;;5.53;100.00
72921;BME280;61064;51.654;5.476;2023-11-18T02:52:54;102426.84;;;5.57;100.00
72921;BME280;61064;51.654;5.476;2023-11-18T02:55:20;102411.81;;;5.56;100.00
72921;BME280;61064;51.654;5.476;2023-11-18T02:57:49;102417.25;;;5.59;100.00
72921;BME280;61064;51.654;5.476;2023-11-18T03:00:17;102392.56;;;5.59;100.00
72921;BME280;61064;51.654;5.476;2023-11-18T03:02:46;102387.31;;;5.59;100.00
72921;BME280;61064;51.654;5.476;2023-11-18T03:05:12;102391.75;;;5.60;100.00
72921;BME280;61064;51.654;5.476;2023-11-18T03:07:38;102388.88;;;5.55;100.00
72921;BME280;61064;51.654;5.476;2023-11-18T03:10:04;102395.41;;;5.62;100.00
72921;BME280;61064;51.654;5.476;2023-11-18T03:12:36;102396.31;;;5.62;100.00
72921;BME280;61064;51.654;5.476;2023-11-18T03:15:01;102393.66;;;5.62;100.00
72921;BME280;61064;51.654;5.476;2023-11-18T03:17:28;102386.66;;;5.63;100.00
72921;BME280;61064;51.654;5.476;2023-11-18T03:19:53;102390.72;;;5.56;100.00
72921;BME280;61064;51.654;5.476;2023-11-18T03:22:19;102391.44;;;5.54;100.00
72921;BME280;61064;51.654;5.476;2023-11-18T03:24:44;102394.00;;;5.52;100.00
72921;BME280;61064;51.654;5.476;2023-11-18T03:27:09;102395.81;;;5.53;100.00
72921;BME280;61064;51.654;5.476;2023-11-18T03:29:34;102403.22;;;5.60;100.00
72921;BME280;61064;51.654;5.476;2023-11-18T03:32:01;102400.59;;;5.60;100.00
72921;BME280;61064;51.654;5.476;2023-11-18T03:34:27;102401.31;;;5.58;100.00
72921;BME280;61064;51.654;5.476;2023-11-18T03:36:52;102385.25;;;5.53;100.00
72921;BME280;61064;51.654;5.476;2023-11-18T03:39:18;102401.41;;;5.59;100.00
72921;BME280;61064;51.654;5.476;2023-11-18T03:41:49;102371.91;;;5.50;100.00
72921;BME280;61064;51.654;5.476;2023-11-18T03:44:15;102373.97;;;5.56;100.00
72921;BME280;61064;51.654;5.476;2023-11-18T03:46:40;102364.09;;;5.52;100.00
72921;BME280;61064;51.654;5.476;2023-11-18T03:49:06;102368.69;;;5.56;100.00
72921;BME280;61064;51.654;5.476;2023-11-18T03:51:31;102362.41;;;5.54;100.00
72921;BME280;61064;51.654;5.476;2023-11-18T03:53:57;102348.25;;;5.52;100.00
72921;BME280;61064;51.654;5.476;2023-11-18T03:56:22;102339.56;;;5.54;100.00
72921;BME280;61064;51.654;5.476;2023-11-18T03:58:47;102340.06;;;5.47;100.00
72921;BME280;61064;51.654;5.476;2023-11-18T04:01:23;102339.41;;;5.51;100.00
72921;BME280;61064;51.654;5.476;2023-11-18T04:03:51;102320.69;;;5.47;100.00
72921;BME280;61064;51.654;5.476;2023-11-18T04:06:17;102323.63;;;5.53;100.00
72921;BME280;61064;51.654;5.476;2023-11-18T04:08:47;102317.44;;;5.52;100.00
72921;BME280;61064;51.654;5.476;2023-11-18T04:11:13;102312.94;;;5.50;100.00
72921;BME280;61064;51.654;5.476;2023-11-18T04:13:43;102311.19;;;5.50;100.00
72921;BME280;61064;51.654;5.476;2023-11-18T04:16:12;102324.47;;;5.52;100.00
72921;BME280;61064;51.654;5.476;2023-11-18T04:18:39;102312.75;;;5.47;100.00
72921;BME280;61064;51.654;5.476;2023-11-18T04:21:06;102328.84;;;5.51;100.00
72921;BME280;61064;51.654;5.476;2023-11-18T04:23:36;102313.94;;;5.52;100.00
72921;BME280;61064;51.654;5.476;2023-11-18T04:26:03;102327.25;;;5.55;100.00
72921;BME280;61064;51.654;5.476;2023-11-18T04:28:29;102320.25;;;5.55;100.00
72921;BME280;61064;51.654;5.476;2023-11-18T04:30:55;102307.78;;;5.53;100.00
72921;BME280;61064;51.654;5.476;2023-11-18T04:33:20;102310.59;;;5.56;100.00
72921;BME280;61064;51.654;5.476;2023-11-18T04:35:46;102294.44;;;5.50;100.00
72921;BME280;61064;51.654;5.476;2023-11-18T04:38:12;102301.84;;;5.57;100.00
72921;BME280;61064;51.654;5.476;2023-11-18T04:40:37;102283.22;;;5.54;100.00
72921;BME280;61064;51.654;5.476;2023-11-18T04:43:04;102277.03;;;5.53;100.00
72921;BME280;61064;51.654;5.476;2023-11-18T04:45:30;102282.38;;;5.55;100.00
72921;BME280;61064;51.654;5.476;2023-11-18T04:47:56;102272.56;;;5.52;100.00
72921;BME280;61064;51.654;5.476;2023-11-18T04:50:24;102280.66;;;5.55;100.00
72921;BME280;61064;51.654;5.476;2023-11-18T04:52:51;102273.34;;;5.50;100.00
72921;BME280;61064;51.654;5.476;2023-11-18T04:55:17;102284.03;;;5.53;100.00
72921;BME280;61064;51.654;5.476;2023-11-18T04:57:43;102282.38;;;5.55;100.00
72921;BME280;61064;51.654;5.476;2023-11-18T05:00:12;102266.31;;;5.50;100.00
72921;BME280;61064;51.654;5.476;2023-11-18T05:02:41;102256.72;;;5.52;100.00
72921;BME280;61064;51.654;5.476;2023-11-18T05:05:08;102253.44;;;5.56;100.00
72921;BME280;61064;51.654;5.476;2023-11-18T05:07:34;102260.34;;;5.54;100.00
72921;BME280;61064;51.654;5.476;2023-11-18T05:10:00;102276.41;;;5.59;100.00
72921;BME280;61064;51.654;5.476;2023-11-18T05:12:29;102261.13;;;5.52;100.00
72921;BME280;61064;51.654;5.476;2023-11-18T05:14:55;102259.63;;;5.57;100.00
72921;BME280;61064;51.654;5.476;2023-11-18T05:17:22;102244.44;;;5.53;100.00
72921;BME280;61064;51.654;5.476;2023-11-18T05:19:47;102245.66;;;5.59;100.00
72921;BME280;61064;51.654;5.476;2023-11-18T05:22:13;102248.38;;;5.61;100.00
72921;BME280;61064;51.654;5.476;2023-11-18T05:24:38;102244.91;;;5.62;100.00
72921;BME280;61064;51.654;5.476;2023-11-18T05:27:04;102232.31;;;5.56;100.00
72921;BME280;61064;51.654;5.476;2023-11-18T05:29:30;102228.91;;;5.59;100.00
72921;BME280;61064;51.654;5.476;2023-11-18T05:31:55;102234.13;;;5.57;100.00
72921;BME280;61064;51.654;5.476;2023-11-18T05:34:21;102239.75;;;5.65;100.00
72921;BME280;61064;51.654;5.476;2023-11-18T05:36:49;102237.13;;;5.65;100.00
72921;BME280;61064;51.654;5.476;2023-11-18T05:39:20;102245.94;;;5.65;100.00
72921;BME280;61064;51.654;5.476;2023-11-18T05:41:45;102235.31;;;5.64;100.00
72921;BME280;61064;51.654;5.476;2023-11-18T05:44:15;102241.50;;;5.64;100.00
72921;BME280;61064;51.654;5.476;2023-11-18T05:46:45;102235.47;;;5.67;100.00
72921;BME280;61064;51.654;5.476;2023-11-18T05:49:16;102219.63;;;5.67;100.00
72921;BME280;61064;51.654;5.476;2023-11-18T05:51:42;102202.66;;;5.62;100.00
72921;BME280;61064;51.654;5.476;2023-11-18T05:54:08;102215.25;;;5.67;100.00
72921;BME280;61064;51.654;5.476;2023-11-18T05:56:33;102209.88;;;5.66;100.00
72921;BME280;61064;51.654;5.476;2023-11-18T05:58:59;102208.00;;;5.63;100.00
72921;BME280;61064;51.654;5.476;2023-11-18T06:01:24;102220.66;;;5.70;100.00
72921;BME280;61064;51.654;5.476;2023-11-18T06:03:52;102214.34;;;5.67;100.00
72921;BME280;61064;51.654;5.476;2023-11-18T06:06:18;102213.66;;;5.71;100.00
72921;BME280;61064;51.654;5.476;2023-11-18T06:08:44;102207.56;;;5.72;100.00
72921;BME280;61064;51.654;5.476;2023-11-18T06:11:10;102207.69;;;5.75;100.00
72921;BME280;61064;51.654;5.476;2023-11-18T06:13:45;102180.94;;;5.67;100.00
72921;BME280;61064;51.654;5.476;2023-11-18T06:16:17;102182.13;;;5.74;100.00
72921;BME280;61064;51.654;5.476;2023-11-18T06:18:46;102191.91;;;5.76;100.00
72921;BME280;61064;51.654;5.476;2023-11-18T06:21:15;102192.81;;;5.77;100.00
72921;BME280;61064;51.654;5.476;2023-11-18T06:23:42;102203.50;;;5.80;100.00
72921;BME280;61064;51.654;5.476;2023-11-18T06:26:08;102205.03;;;5.75;100.00
72921;BME280;61064;51.654;5.476;2023-11-18T06:28:36;102209.72;;;5.80;100.00
72921;BME280;61064;51.654;5.476;2023-11-18T06:31:01;102209.03;;;5.84;100.00
72921;BME280;61064;51.654;5.476;2023-11-18T06:33:27;102187.66;;;5.80;100.00
72921;BME280;61064;51.654;5.476;2023-11-18T06:35:53;102185.19;;;5.83;100.00
72921;BME280;61064;51.654;5.476;2023-11-18T06:38:20;102201.28;;;5.88;100.00
72921;BME280;61064;51.654;5.476;2023-11-18T06:40:45;102184.41;;;5.85;100.00
72921;BME280;61064;51.654;5.476;2023-11-18T06:43:21;102197.81;;;5.89;100.00
72921;BME280;61064;51.654;5.476;2023-11-18T06:45:47;102200.53;;;5.90;100.00
72921;BME280;61064;51.654;5.476;2023-11-18T06:48:14;102197.91;;;5.90;100.00
72921;BME280;61064;51.654;5.476;2023-11-18T06:50:40;102190.88;;;5.91;100.00
72921;BME280;61064;51.654;5.476;2023-11-18T06:53:09;102183.78;;;5.90;100.00
72921;BME280;61064;51.654;5.476;2023-11-18T06:55:35;102185.59;;;5.91;100.00
72921;BME280;61064;51.654;5.476;2023-11-18T06:58:01;102189.19;;;5.93;100.00
72921;BME280;61064;51.654;5.476;2023-11-18T07:00:30;102178.63;;;5.93;100.00
72921;BME280;61064;51.654;5.476;2023-11-18T07:02:56;102178.72;;;5.94;100.00
72921;BME280;61064;51.654;5.476;2023-11-18T07:05:22;102183.22;;;5.97;100.00
72921;BME280;61064;51.654;5.476;2023-11-18T07:07:52;102173.22;;;5.90;100.00
72921;BME280;61064;51.654;5.476;2023-11-18T07:10:17;102186.72;;;5.96;100.00
72921;BME280;61064;51.654;5.476;2023-11-18T07:12:48;102168.88;;;5.92;100.00
72921;BME280;61064;51.654;5.476;2023-11-18T07:15:14;102178.09;;;6.00;100.00
72921;BME280;61064;51.654;5.476;2023-11-18T07:17:40;102180.84;;;6.03;100.00
72921;BME280;61064;51.654;5.476;2023-11-18T07:20:06;102179.06;;;6.02;100.00
72921;BME280;61064;51.654;5.476;2023-11-18T07:22:31;102176.47;;;6.03;100.00
72921;BME280;61064;51.654;5.476;2023-11-18T07:24:57;102161.63;;;6.05;100.00
72921;BME280;61064;51.654;5.476;2023-11-18T07:27:22;102167.81;;;6.06;100.00
72921;BME280;61064;51.654;5.476;2023-11-18T07:29:48;102170.53;;;6.07;100.00
72921;BME280;61064;51.654;5.476;2023-11-18T07:32:13;102171.41;;;6.08;100.00
72921;BME280;61064;51.654;5.476;2023-11-18T07:34:39;102162.44;;;6.04;100.00
72921;BME280;61064;51.654;5.476;2023-11-18T07:37:06;102170.53;;;6.07;100.00
72921;BME280;61064;51.654;5.476;2023-11-18T07:39:33;102184.06;;;6.15;100.00
72921;BME280;61064;51.654;5.476;2023-11-18T07:42:14;102185.88;;;6.16;100.00
72921;BME280;61064;51.654;5.476;2023-11-18T07:44:40;102181.34;;;6.13;100.00
72921;BME280;61064;51.654;5.476;2023-11-18T07:47:05;102183.97;;;6.13;100.00
72921;BME280;61064;51.654;5.476;2023-11-18T07:49:31;102194.00;;;6.20;100.00
72921;BME280;61064;51.654;5.476;2023-11-18T07:51:57;102181.50;;;6.16;100.00
72921;BME280;61064;51.654;5.476;2023-11-18T07:54:22;102197.63;;;6.22;100.00
72921;BME280;61064;51.654;5.476;2023-11-18T07:56:49;102198.66;;;6.26;100.00
72921;BME280;61064;51.654;5.476;2023-11-18T07:59:14;102198.38;;;6.20;100.00
72921;BME280;61064;51.654;5.476;2023-11-18T08:01:43;102200.47;;;6.27;100.00
72921;BME280;61064;51.654;5.476;2023-11-18T08:04:12;102203.31;;;6.32;100.00
72921;BME280;61064;51.654;5.476;2023-11-18T08:06:39;102194.50;;;6.31;100.00
72921;BME280;61064;51.654;5.476;2023-11-18T08:09:05;102201.66;;;6.34;100.00
72921;BME280;61064;51.654;5.476;2023-11-18T08:11:35;102199.78;;;6.31;100.00
72921;BME280;61064;51.654;5.476;2023-11-18T08:14:00;102185.72;;;6.32;100.00
72921;BME280;61064;51.654;5.476;2023-11-18T08:16:28;102179.81;;;6.38;100.00
72921;BME280;61064;51.654;5.476;2023-11-18T08:18:53;102181.75;;;6.42;100.00
72921;BME280;61064;51.654;5.476;2023-11-18T08:21:19;102180.91;;;6.43;100.00
72921;BME280;61064;51.654;5.476;2023-11-18T08:23:44;102168.53;;;6.42;100.00
72921;BME280;61064;51.654;5.476;2023-11-18T08:26:11;102180.16;;;6.45;100.00
72921;BME280;61064;51.654;5.476;2023-11-18T08:28:37;102193.50;;;6.48;100.00
72921;BME280;61064;51.654;5.476;2023-11-18T08:31:02;102189.13;;;6.49;100.00
72921;BME280;61064;51.654;5.476;2023-11-18T08:33:27;102184.88;;;6.52;100.00
72921;BME280;61064;51.654;5.476;2023-11-18T08:35:54;102165.25;;;6.47;100.00
72921;BME280;61064;51.654;5.476;2023-11-18T08:38:19;102171.88;;;6.57;100.00
72921;BME280;61064;51.654;5.476;2023-11-18T08:40:44;102156.84;;;6.56;100.00
72921;BME280;61064;51.654;5.476;2023-11-18T08:43:12;102158.00;;;6.62;100.00
72921;BME280;61064;51.654;5.476;2023-11-18T08:45:38;102143.16;;;6.66;100.00
72921;BME280;61064;51.654;5.476;2023-11-18T08:48:04;102141.50;;;6.68;100.00
72921;BME280;61064;51.654;5.476;2023-11-18T08:50:33;102138.00;;;6.69;100.00
72921;BME280;61064;51.654;5.476;2023-11-18T08:52:59;102132.94;;;6.74;100.00
72921;BME280;61064;51.654;5.476;2023-11-18T08:55:29;102125.03;;;6.75;100.00
72921;BME280;61064;51.654;5.476;2023-11-18T08:58:16;102111.06;;;6.78;100.00
72921;BME280;61064;51.654;5.476;2023-11-18T09:00:46;102103.19;;;6.79;100.00
72921;BME280;61064;51.654;5.476;2023-11-18T09:03:19;102105.03;;;6.82;100.00
72921;BME280;61064;51.654;5.476;2023-11-18T09:06:00;102112.22;;;6.84;100.00
72921;BME280;61064;51.654;5.476;2023-11-18T09:08:37;102116.72;;;6.87;100.00
72921;BME280;61064;51.654;5.476;2023-11-18T09:11:09;102108.66;;;6.84;100.00
72921;BME280;61064;51.654;5.476;2023-11-18T09:13:36;102100.00;;;6.88;100.00
72921;BME280;61064;51.654;5.476;2023-11-18T09:16:06;102118.03;;;6.96;100.00
72921;BME280;61064;51.654;5.476;2023-11-18T09:18:42;102105.75;;;6.98;100.00
72921;BME280;61064;51.654;5.476;2023-11-18T09:21:13;102103.25;;;7.01;100.00
72921;BME280;61064;51.654;5.476;2023-11-18T09:23:44;102090.13;;;7.04;100.00
72921;BME280;61064;51.654;5.476;2023-11-18T09:26:10;102080.44;;;7.05;100.00
72921;BME280;61064;51.654;5.476;2023-11-18T09:28:36;102080.44;;;7.05;100.00
72921;BME280;61064;51.654;5.476;2023-11-18T09:31:02;102073.47;;;7.07;100.00
72921;BME280;61064;51.654;5.476;2023-11-18T09:33:30;102073.59;;;7.10;100.00
72921;BME280;61064;51.654;5.476;2023-11-18T09:36:02;102066.66;;;7.14;100.00
72921;BME280;61064;51.654;5.476;2023-11-18T09:38:31;102064.00;;;7.14;100.00
72921;BME280;61064;51.654;5.476;2023-11-18T09:40:58;102057.03;;;7.16;100.00
72921;BME280;61064;51.654;5.476;2023-11-18T09:43:40;102040.09;;;7.10;100.00
72921;BME280;61064;51.654;5.476;2023-11-18T09:46:14;102050.84;;;7.15;100.00
72921;BME280;61064;51.654;5.476;2023-11-18T09:48:42;102052.66;;;7.16;100.00
72921;BME280;61064;51.654;5.476;2023-11-18T09:51:08;102049.19;;;7.17;100.00
72921;BME280;61064;51.654;5.476;2023-11-18T09:53:38;102052.75;;;7.19;100.00
72921;BME280;61064;51.654;5.476;2023-11-18T09:56:18;102040.25;;;7.15;100.00
72921;BME280;61064;51.654;5.476;2023-11-18T09:58:51;102038.75;;;7.22;100.00
72921;BME280;61064;51.654;5.476;2023-11-18T10:01:23;102030.06;;;7.24;100.00
72921;BME280;61064;51.654;5.476;2023-11-18T10:03:53;102037.13;;;7.25;100.00
72921;BME280;61064;51.654;5.476;2023-11-18T10:06:23;102035.44;;;7.27;100.00
72921;BME280;61064;51.654;5.476;2023-11-18T10:08:53;102008.16;;;7.28;100.00
72921;BME280;61064;51.654;5.476;2023-11-18T10:11:19;102014.38;;;7.30;100.00
72921;BME280;61064;51.654;5.476;2023-11-18T10:13:48;101993.94;;;7.26;100.00
72921;BME280;61064;51.654;5.476;2023-11-18T10:16:14;101995.81;;;7.29;100.00
72921;BME280;61064;51.654;5.476;2023-11-18T10:18:39;101990.75;;;7.35;100.00
72921;BME280;61064;51.654;5.476;2023-11-18T10:21:14;101976.44;;;7.30;100.00
72921;BME280;61064;51.654;5.476;2023-11-18T10:23:58;101971.94;;;7.27;100.00
72921;BME280;61064;51.654;5.476;2023-11-18T10:26:25;101989.06;;;7.37;100.00
72921;BME280;61064;51.654;5.476;2023-11-18T10:28:51;101977.53;;;7.35;100.00
72921;BME280;61064;51.654;5.476;2023-11-18T10:31:18;101987.53;;;7.43;100.00
72921;BME280;61064;51.654;5.476;2023-11-18T10:33:44;101999.09;;;7.45;100.00
72921;BME280;61064;51.654;5.476;2023-11-18T10:36:22;101985.03;;;7.46;100.00
72921;BME280;61064;51.654;5.476;2023-11-18T10:38:49;101962.94;;;7.46;100.00
72921;BME280;61064;51.654;5.476;2023-11-18T10:41:15;101963.03;;;7.49;100.00
72921;BME280;61064;51.654;5.476;2023-11-18T10:43:42;101955.84;;;7.45;100.00
72921;BME280;61064;51.654;5.476;2023-11-18T10:46:10;101963.09;;;7.50;100.00
72921;BME280;61064;51.654;5.476;2023-11-18T10:48:44;101955.38;;;7.57;100.00
72921;BME280;61064;51.654;5.476;2023-11-18T10:51:14;101959.88;;;7.59;100.00
72921;BME280;61064;51.654;5.476;2023-11-18T10:53:42;101954.63;;;7.61;100.00
72921;BME280;61064;51.654;5.476;2023-11-18T10:56:19;101956.53;;;7.65;100.00
72921;BME280;61064;51.654;5.476;2023-11-18T10:58:46;101944.81;;;7.58;100.00
72921;BME280;61064;51.654;5.476;2023-11-18T11:01:11;101968.19;;;7.70;100.00
72921;BME280;61064;51.654;5.476;2023-11-18T11:03:53;101968.25;;;7.71;100.00
72921;BME280;61064;51.654;5.476;2023-11-18T11:06:23;101964.84;;;7.74;100.00
72921;BME280;61064;51.654;5.476;2023-11-18T11:08:50;101958.56;;;7.72;100.00
72921;BME280;61064;51.654;5.476;2023-11-18T11:11:21;101931.41;;;7.77;100.00
72921;BME280;61064;51.654;5.476;2023-11-18T11:13:56;101896.81;;;7.73;100.00
72921;BME280;61064;51.654;5.476;2023-11-18T11:16:28;101922.75;;;7.83;100.00
72921;BME280;61064;51.654;5.476;2023-11-18T11:18:55;101910.34;;;7.82;100.00
72921;BME280;61064;51.654;5.476;2023-11-18T11:21:25;101921.00;;;7.83;100.00
72921;BME280;61064;51.654;5.476;2023-11-18T11:23:57;101897.22;;;7.85;100.00
72921;BME280;61064;51.654;5.476;2023-11-18T11:29:27;101881.38;;;7.86;100.00
72921;BME280;61064;51.654;5.476;2023-11-18T11:34:56;101849.41;;;7.82;100.00
72921;BME280;61064;51.654;5.476;2023-11-18T11:37:32;101846.13;;;7.89;100.00
72921;BME280;61064;51.654;5.476;2023-11-18T11:40:00;101817.00;;;7.89;100.00
72921;BME280;61064;51.654;5.476;2023-11-18T11:42:29;101804.72;;;7.91;100.00
72921;BME280;61064;51.654;5.476;2023-11-18T11:44:56;101809.13;;;7.92;100.00
72921;BME280;61064;51.654;5.476;2023-11-18T11:47:24;101807.34;;;7.91;100.00
72921;BME280;61064;51.654;5.476;2023-11-18T11:50:00;101803.00;;;7.93;100.00
72921;BME280;61064;51.654;5.476;2023-11-18T11:52:36;101777.25;;;7.89;100.00
72921;BME280;61064;51.654;5.476;2023-11-18T11:55:18;101773.97;;;7.98;100.00
72921;BME280;61064;51.654;5.476;2023-11-18T11:57:52;101768.75;;;7.99;100.00
72921;BME280;61064;51.654;5.476;2023-11-18T12:00:23;101758.13;;;7.99;100.00
72921;BME280;61064;51.654;5.476;2023-11-18T12:02:53;101753.81;;;8.03;100.00
72921;BME280;61064;51.654;5.476;2023-11-18T12:05:25;101736.22;;;8.05;100.00
72921;BME280;61064;51.654;5.476;2023-11-18T12:07:55;101728.28;;;8.05;100.00
72921;BME280;61064;51.654;5.476;2023-11-18T12:10:21;101736.28;;;8.06;100.00
72921;BME280;61064;51.654;5.476;2023-11-18T12:12:49;101746.13;;;8.10;100.00
72921;BME280;61064;51.654;5.476;2023-11-18T12:15:53;101744.44;;;8.12;100.00
72921;BME280;61064;51.654;5.476;2023-11-18T12:18:29;101726.78;;;8.13;100.00
72921;BME280;61064;51.654;5.476;2023-11-18T12:20:57;101707.19;;;8.08;100.00
72921;BME280;61064;51.654;5.476;2023-11-18T12:23:27;101694.00;;;8.11;100.00
72921;BME280;61064;51.654;5.476;2023-11-18T12:25:53;101696.91;;;8.18;100.00
72921;BME280;61064;51.654;5.476;2023-11-18T12:28:29;101678.44;;;8.21;100.00
72921;BME280;61064;51.654;5.476;2023-11-18T12:30:59;101672.22;;;8.21;100.00
72921;BME280;61064;51.654;5.476;2023-11-18T12:39:27;101668.06;;;8.29;100.00
72921;BME280;61064;51.654;5.476;2023-11-18T12:42:03;101660.16;;;8.30;100.00
72921;BME280;61064;51.654;5.476;2023-11-18T12:44:36;101657.56;;;8.32;100.00
72921;BME280;61064;51.654;5.476;2023-11-18T12:47:05;101624.91;;;8.33;100.00
72921;BME280;61064;51.654;5.476;2023-11-18T12:49:43;101587.78;;;8.33;100.00
72921;BME280;61064;51.654;5.476;2023-11-18T12:52:11;101582.47;;;8.33;100.00
72921;BME280;61064;51.654;5.476;2023-11-18T12:54:40;101554.84;;;8.26;100.00
72921;BME280;61064;51.654;5.476;2023-11-18T12:57:09;101559.50;;;8.33;100.00
72921;BME280;61064;51.654;5.476;2023-11-18T12:59:36;101546.00;;;8.26;100.00
72921;BME280;61064;51.654;5.476;2023-11-18T13:02:07;101541.81;;;8.32;100.00
72921;BME280;61064;51.654;5.476;2023-11-18T13:04:32;101545.44;;;8.36;100.00
72921;BME280;61064;51.654;5.476;2023-11-18T13:06:59;101531.06;;;8.28;100.00